Time;durP1;ratioP1;P1;durP2;ratioP2;P2;SDS_P1;SDS_P2;PMS_P1;PMS_P2;Temp;Humidity;BMP_temperature;BMP_pressure;BME280_temperature;BME280_humidity;BME280_pressure;Samples;Min_cycle;Max_cycle;Signal;HPM_P1;HPM_P2
2024/03/06 00:03:32;;;;;;;5.22;3.33;;;;;;;17.33;53.91;101590.50;10445875;28;20317;-60
2024/03/06 00:08:33;;;;;;;4.38;2.97;;;;;;;17.34;54.86;101592.13;10446366;28;20384;-60
2024/03/06 00:13:34;;;;;;;3.40;2.83;;;;;;;17.31;53.81;101597.22;10447001;28;20053;-59
2024/03/06 00:18:34;;;;;;;4.93;3.40;;;;;;;17.33;53.75;101595.06;10447826;28;20793;-60
2024/03/06 00:23:35;;;;;;;3.63;2.75;;;;;;;17.35;54.32;101609.00;10446767;28;20032;-60
2024/03/06 00:28:35;;;;;;;3.20;2.35;;;;;;;17.37;53.86;101604.16;10446087;28;20036;-59
2024/03/06 00:33:36;;;;;;;3.57;2.70;;;;;;;17.39;54.59;101608.19;10446280;28;20036;-60
2024/03/06 00:38:36;;;;;;;3.50;2.70;;;;;;;17.37;53.53;101618.38;10446538;28;20267;-60
2024/03/06 00:43:37;;;;;;;3.50;2.70;;;;;;;17.34;53.23;101613.56;10445970;28;20279;-61
2024/03/06 00:48:40;;;;;;;3.28;2.72;;;;;;;17.36;54.31;101613.28;10446750;28;20013;-60
2024/03/06 00:53:40;;;;;;;3.85;2.47;;;;;;;17.35;53.23;101619.72;10445743;28;20027;-60
2024/03/06 00:58:41;;;;;;;3.55;2.60;;;;;;;17.35;54.36;101630.44;10445264;28;20029;-60
2024/03/06 01:03:41;;;;;;;3.67;2.40;;;;;;;17.32;53.64;101629.09;10444448;28;20375;-60
2024/03/06 01:08:41;;;;;;;4.30;2.33;;;;;;;17.35;53.08;101635.81;10444997;28;20290;-60
2024/03/06 01:13:42;;;;;;;3.17;2.00;;;;;;;17.35;53.68;101647.34;10444592;28;20295;-60
2024/03/06 01:18:42;;;;;;;2.50;2.10;;;;;;;17.40;52.40;101644.66;10444222;28;20790;-60
2024/03/06 01:23:43;;;;;;;2.57;2.30;;;;;;;17.41;54.00;101648.16;10444728;28;20029;-59
2024/03/06 01:28:43;;;;;;;2.72;2.20;;;;;;;17.45;52.63;101654.59;10444161;28;20341;-60
2024/03/06 01:33:43;;;;;;;3.37;2.77;;;;;;;17.43;53.58;101648.69;10443246;28;20029;-60
2024/03/06 01:38:45;;;;;;;3.63;2.20;;;;;;;17.45;51.91;101657.28;10444008;28;20280;-60
2024/03/06 01:43:46;;;;;;;4.03;2.55;;;;;;;17.48;52.30;101659.44;10443569;28;20279;-60
2024/03/06 01:48:47;;;;;;;3.50;1.90;;;;;;;17.45;53.37;101655.41;10443641;28;20385;-60
2024/03/06 01:53:48;;;;;;;3.30;2.25;;;;;;;17.47;52.63;101650.56;10442806;28;20025;-60
2024/03/06 01:58:48;;;;;;;2.25;2.05;;;;;;;17.49;51.77;101651.13;10443361;28;20338;-59
2024/03/06 02:03:49;;;;;;;3.00;1.83;;;;;;;17.44;52.59;101658.34;10442757;28;20075;-60
2024/03/06 02:08:49;;;;;;;3.80;2.60;;;;;;;17.41;52.06;101653.53;10443495;28;20032;-60
2024/03/06 02:13:50;;;;;;;2.60;1.88;;;;;;;17.40;52.86;101668.78;10442031;28;20068;-60
2024/03/06 02:18:54;;;;;;;2.83;2.05;;;;;;;17.39;52.52;101672.53;10441742;28;20021;-60
2024/03/06 02:23:55;;;;;;;2.83;2.10;;;;;;;17.45;52.12;101678.72;10444009;28;20029;-60
2024/03/06 02:28:56;;;;;;;2.47;2.00;;;;;;;17.47;52.45;101685.44;10451139;28;20400;-60
2024/03/06 02:33:58;;;;;;;2.50;1.90;;;;;;;17.48;51.90;101688.91;10450027;28;20332;-60
2024/03/06 02:38:58;;;;;;;2.75;1.80;;;;;;;17.50;52.40;101686.78;10450925;28;20650;-59
2024/03/06 02:43:59;;;;;;;3.23;2.10;;;;;;;17.47;52.59;101677.41;10451035;28;20036;-61
2024/03/06 02:48:59;;;;;;;3.63;2.40;;;;;;;17.48;52.14;101683.56;10450913;28;20275;-60
2024/03/06 02:53:59;;;;;;;2.92;2.30;;;;;;;17.47;52.27;101690.00;10450710;28;20279;-60
2024/03/06 02:59:02;;;;;;;3.58;2.25;;;;;;;17.46;51.49;101680.34;10449011;28;20020;-59
2024/03/06 03:04:03;;;;;;;4.20;2.60;;;;;;;17.47;51.50;101695.34;10449290;28;20021;-60
2024/03/06 03:09:03;;;;;;;2.58;2.08;;;;;;;17.50;51.49;101686.78;10448515;28;20116;-59
2024/03/06 03:14:04;;;;;;;2.87;2.00;;;;;;;17.49;52.10;101690.53;10448233;28;20044;-59
2024/03/06 03:19:04;;;;;;;2.60;2.03;;;;;;;17.48;52.22;101684.38;10449938;28;21114;-60
2024/03/06 03:24:05;;;;;;;4.05;2.70;;;;;;;17.50;52.61;101689.47;10443304;28;20298;-59
2024/03/06 03:29:05;;;;;;;3.70;2.58;;;;;;;17.48;52.29;101688.91;10449104;28;20029;-60
2024/03/06 03:34:05;;;;;;;3.37;3.07;;;;;;;17.48;51.30;101691.59;10449037;28;20044;-60
2024/03/06 03:39:08;;;;;;;3.13;2.43;;;;;;;17.49;51.73;101688.66;10448087;28;20751;-60
2024/03/06 03:44:08;;;;;;;3.70;2.92;;;;;;;17.49;51.97;101696.69;10448647;28;20279;-60
2024/03/06 03:49:09;;;;;;;4.50;2.80;;;;;;;17.47;52.03;101695.34;10446913;28;20384;-60
2024/03/06 03:54:09;;;;;;;3.17;2.35;;;;;;;17.46;51.35;101699.91;10447142;28;20291;-59
2024/03/06 03:59:09;;;;;;;3.00;2.50;;;;;;;17.46;50.85;101704.47;10447719;28;20329;-60
2024/03/06 04:04:10;;;;;;;2.58;2.22;;;;;;;17.45;51.81;101717.06;10446508;28;20665;-60
2024/03/06 04:09:10;;;;;;;2.87;2.10;;;;;;;17.47;51.66;101714.94;10447266;28;20021;-59
2024/03/06 04:14:11;;;;;;;2.45;1.98;;;;;;;17.45;51.45;101705.53;10447057;28;20335;-60
2024/03/06 04:19:11;;;;;;;2.53;1.87;;;;;;;17.43;51.79;101723.78;10445657;28;20549;-60
2024/03/06 04:24:11;;;;;;;2.45;1.90;;;;;;;17.47;50.56;101716.81;10447093;28;20279;-60
2024/03/06 04:29:12;;;;;;;2.28;1.73;;;;;;;17.41;50.98;101718.69;10446632;28;20021;-60
2024/03/06 04:34:13;;;;;;;2.58;2.25;;;;;;;17.45;51.29;101729.69;10446453;28;20036;-60
2024/03/06 04:39:14;;;;;;;2.42;1.83;;;;;;;17.42;51.64;101724.84;10449231;28;20034;-60
2024/03/06 04:44:15;;;;;;;2.58;2.00;;;;;;;17.46;51.27;101729.41;10448486;28;20053;-60
2024/03/06 04:49:15;;;;;;;6.90;2.70;;;;;;;17.59;51.34;101738.03;10447200;28;20108;-62
2024/03/06 04:54:16;;;;;;;4.22;2.22;;;;;;;17.75;50.43;101737.81;10447275;28;20317;-59
2024/03/06 04:59:16;;;;;;;3.90;2.23;;;;;;;17.75;51.49;101743.19;10446618;28;20108;-60
2024/03/06 05:04:16;;;;;;;3.58;1.75;;;;;;;17.78;51.13;101760.66;10448136;28;20279;-59
2024/03/06 05:09:17;;;;;;;3.83;2.30;;;;;;;17.77;51.02;101753.69;10447165;28;20025;-60
2024/03/06 05:14:17;;;;;;;3.80;2.30;;;;;;;17.70;51.56;101761.97;10444608;28;20060;-60
2024/03/06 05:19:17;;;;;;;2.40;2.00;;;;;;;17.69;50.86;101768.41;10445284;28;20056;-60
2024/03/06 05:24:18;;;;;;;4.93;2.57;;;;;;;17.68;50.42;101774.00;10442827;28;20662;-59
2024/03/06 05:29:18;;;;;;;2.70;2.07;;;;;;;17.68;51.17;101782.84;10443675;28;20283;-59
2024/03/06 05:34:18;;;;;;;3.45;2.05;;;;;;;17.68;50.43;101788.22;10444067;28;20533;-59
2024/03/06 05:39:19;;;;;;;3.10;2.10;;;;;;;17.65;50.80;101791.44;10441057;28;20503;-60
2024/03/06 05:44:19;;;;;;;2.70;1.97;;;;;;;17.66;50.00;101802.97;10437204;28;20599;-60
2024/03/06 05:49:19;;;;;;;3.25;2.42;;;;;;;17.66;50.48;101809.13;10442162;28;20659;-60
2024/03/06 05:54:23;;;;;;;2.40;2.03;;;;;;;17.66;50.53;101822.53;10443884;28;20028;-60
2024/03/06 05:59:24;;;;;;;4.22;2.25;;;;;;;17.64;50.82;101830.06;10429066;28;20293;-60
2024/03/06 06:04:24;;;;;;;2.97;2.45;;;;;;;17.60;50.15;101838.88;10439795;28;20028;-59
2024/03/06 06:09:26;;;;;;;7.63;2.33;;;;;;;17.56;50.27;101833.22;10445775;28;20033;-63
2024/03/06 06:14:32;;;;;;;6.05;2.42;;;;;;;17.48;51.02;101839.88;10444540;28;20489;-62
2024/03/06 06:19:32;;;;;;;3.65;2.28;;;;;;;17.52;50.95;101848.19;10445811;28;20029;-63
2024/03/06 06:24:32;;;;;;;5.77;2.80;;;;;;;17.56;51.53;101852.00;10446561;28;20020;-60
2024/03/06 06:29:33;;;;;;;8.37;2.80;;;;;;;17.59;51.44;101862.19;10431756;28;20278;-60
2024/03/06 06:34:34;;;;;;;4.83;2.53;;;;;;;17.56;52.82;101861.91;10445572;28;20272;-59
2024/03/06 06:39:34;;;;;;;5.45;2.17;;;;;;;17.54;52.42;101867.53;10445728;28;20282;-61
2024/03/06 06:44:34;;;;;;;7.67;3.27;;;;;;;17.57;52.36;101875.06;10445475;28;20032;-61
2024/03/06 06:49:35;;;;;;;12.60;3.63;;;;;;;17.49;52.02;101880.91;10445445;28;20439;-62
2024/03/06 06:54:35;;;;;;;11.03;3.23;;;;;;;17.51;51.78;101881.44;10445520;28;20259;-61
2024/03/06 06:59:35;;;;;;;14.47;4.43;;;;;;;17.45;52.44;101902.06;10443486;28;20275;-60
2024/03/06 07:04:35;;;;;;;14.40;3.92;;;;;;;17.38;51.36;101914.88;10438785;28;20298;-61
2024/03/06 07:09:36;;;;;;;13.50;4.03;;;;;;;17.40;51.86;101926.16;10444172;28;20025;-61
2024/03/06 07:14:36;;;;;;;9.43;3.57;;;;;;;17.37;52.12;101928.56;10450295;28;20299;-60
2024/03/06 07:19:36;;;;;;;6.67;3.13;;;;;;;17.35;51.23;101930.69;10450834;28;20852;-61
2024/03/06 07:24:37;;;;;;;6.93;3.67;;;;;;;17.30;51.20;101930.66;10452130;28;20296;-61
2024/03/06 07:29:37;;;;;;;7.50;3.40;;;;;;;17.30;52.13;101944.88;10451637;28;20647;-62
2024/03/06 07:34:37;;;;;;;8.45;3.15;;;;;;;17.31;51.49;101954.53;10450613;28;20283;-61
2024/03/06 07:39:38;;;;;;;4.88;3.40;;;;;;;17.33;52.38;101965.00;10450966;28;20028;-61
2024/03/06 07:44:39;;;;;;;5.28;2.30;;;;;;;17.31;50.99;101962.56;10451862;28;20025;-61
2024/03/06 07:49:39;;;;;;;12.70;4.70;;;;;;;17.29;51.43;101964.72;10450282;28;20017;-61
2024/03/06 07:54:39;;;;;;;5.22;2.88;;;;;;;17.26;50.92;101965.19;10439598;28;20276;-61
2024/03/06 07:59:40;;;;;;;4.22;2.40;;;;;;;17.27;51.29;101969.50;10449149;28;20452;-61
2024/03/06 08:04:40;;;;;;;6.18;2.75;;;;;;;17.29;51.27;101970.06;10449498;28;20119;-61
2024/03/06 08:09:40;;;;;;;4.73;2.87;;;;;;;17.27;51.43;101971.38;10448419;28;20024;-60
2024/03/06 08:14:41;;;;;;;4.13;2.37;;;;;;;17.39;52.23;101972.00;10449645;28;20295;-59
2024/03/06 08:19:41;;;;;;;17.23;5.60;;;;;;;17.29;52.76;101990.72;10450125;28;20283;-58
2024/03/06 08:24:41;;;;;;;11.50;4.67;;;;;;;17.15;52.31;101993.78;10450129;28;20341;-59
2024/03/06 08:29:42;;;;;;;14.82;4.32;;;;;;;17.20;52.21;102003.75;10449201;28;20325;-62
2024/03/06 08:34:42;;;;;;;7.15;3.15;;;;;;;17.06;52.92;102011.41;10448971;28;20479;-62
2024/03/06 08:39:43;;;;;;;17.45;5.07;;;;;;;17.06;52.13;102010.59;10449375;28;20025;-61
2024/03/06 08:44:44;;;;;;;19.90;4.33;;;;;;;17.02;52.46;102018.31;10449484;28;20021;-62
2024/03/06 08:49:44;;;;;;;11.30;4.35;;;;;;;16.96;52.82;102024.72;10448981;28;20279;-61
2024/03/06 08:54:44;;;;;;;10.35;4.88;;;;;;;17.00;52.21;102036.53;10448598;28;20021;-62
2024/03/06 08:59:45;;;;;;;10.03;4.30;;;;;;;17.03;53.61;102044.06;10446885;28;20040;-59
2024/03/06 09:04:46;;;;;;;12.90;3.27;;;;;;;17.06;53.36;102059.66;10446916;28;20306;-59
2024/03/06 09:09:46;;;;;;;9.50;4.43;;;;;;;17.06;52.43;102046.25;10448243;28;20681;-59
2024/03/06 09:14:46;;;;;;;8.23;4.87;;;;;;;17.11;53.29;102058.88;10447654;28;20044;-57
2024/03/06 09:19:47;;;;;;;7.23;4.90;;;;;;;17.05;53.38;102057.19;10447824;28;20796;-58
2024/03/06 09:24:48;;;;;;;5.77;3.60;;;;;;;17.05;53.22;102067.91;10447182;28;20321;-59
2024/03/06 09:29:48;;;;;;;9.13;4.22;;;;;;;17.04;53.32;102074.34;10446015;28;20823;-59
2024/03/06 09:34:49;;;;;;;10.63;4.50;;;;;;;17.08;53.01;102083.50;10446518;28;20024;-58
2024/03/06 09:39:50;;;;;;;6.25;3.38;;;;;;;17.08;53.42;102080.81;10447268;28;20307;-61
2024/03/06 09:44:51;;;;;;;7.88;3.83;;;;;;;17.08;52.75;102088.88;10445389;28;20369;-59
2024/03/06 09:49:55;;;;;;;8.10;3.75;;;;;;;17.09;53.11;102098.53;10447222;28;20024;-58
2024/03/06 09:54:55;;;;;;;7.30;4.45;;;;;;;17.10;52.96;102100.13;10446453;28;20031;-58
2024/03/06 09:59:56;;;;;;;7.60;4.20;;;;;;;17.07;53.35;102096.09;10446551;28;20031;-58
2024/03/06 10:04:57;;;;;;;11.18;4.60;;;;;;;17.06;53.46;102107.06;10445963;28;20033;-57
2024/03/06 10:09:58;;;;;;;6.70;3.67;;;;;;;17.03;52.97;102120.94;10446053;28;20109;-58
2024/03/06 10:14:58;;;;;;;7.45;3.42;;;;;;;17.03;52.55;102112.91;10438976;28;20017;-59
2024/03/06 10:20:01;;;;;;;5.15;3.80;;;;;;;17.06;52.74;102125.84;10440790;28;20032;-58
2024/03/06 10:25:02;;;;;;;4.82;3.72;;;;;;;17.11;52.50;102133.91;10445605;28;20025;-58
2024/03/06 10:30:10;;;;;;;5.00;3.33;;;;;;;17.10;53.64;102130.44;10446282;28;20021;-58
2024/03/06 10:35:18;;;;;;;5.70;2.97;;;;;;;17.07;53.82;102125.56;10445270;28;20021;-60
2024/03/06 10:40:19;;;;;;;5.93;3.55;;;;;;;17.08;53.78;102124.50;10444647;28;20114;-60
2024/03/06 10:45:21;;;;;;;8.02;3.35;;;;;;;17.12;53.13;102124.81;10428364;28;20036;-60
2024/03/06 10:50:21;;;;;;;6.07;3.58;;;;;;;17.12;52.97;102128.31;10452569;28;20025;-59
2024/03/06 10:55:23;;;;;;;6.80;3.03;;;;;;;17.12;53.28;102139.03;10452774;28;20075;-59
2024/03/06 11:00:28;;;;;;;6.68;3.70;;;;;;;17.12;52.77;102138.22;10453490;28;20366;-59
2024/03/06 11:05:29;;;;;;;6.43;4.93;;;;;;;17.08;53.68;102142.47;10451440;28;20449;-59
2024/03/06 11:10:31;;;;;;;6.05;4.53;;;;;;;17.04;52.42;102135.97;10452550;28;20053;-59
2024/03/06 11:15:31;;;;;;;5.97;3.70;;;;;;;17.00;53.69;102143.69;10450268;28;20017;-59
2024/03/06 11:20:35;;;;;;;4.78;3.67;;;;;;;17.06;53.84;102147.28;10451308;28;20020;-59
2024/03/06 11:25:50;;;;;;;4.90;3.65;;;;;;;17.04;53.67;102146.69;10450807;28;20128;-59
2024/03/06 11:30:53;;;;;;;5.57;3.20;;;;;;;17.01;53.05;102147.19;10451456;28;20360;-59
2024/03/06 11:36:23;;;;;;;6.40;4.80;;;;;;;17.02;54.26;102154.16;10450573;28;20400;-59
2024/03/06 11:41:27;;;;;;;6.95;4.57;;;;;;;17.03;52.66;102153.09;10450205;28;20039;-59
2024/03/06 11:46:41;;;;;;;6.85;4.50;;;;;;;17.03;53.17;102151.22;10438079;28;20104;-60
2024/03/06 11:51:42;;;;;;;8.82;3.92;;;;;;;17.02;53.82;102154.16;10450629;28;20040;-59
2024/03/06 11:56:46;;;;;;;6.57;4.30;;;;;;;17.06;52.92;102155.31;10448442;28;20437;-60
2024/03/06 12:01:47;;;;;;;6.32;4.40;;;;;;;17.02;53.94;102154.97;10451498;28;20282;-59
2024/03/06 12:06:47;;;;;;;5.78;4.55;;;;;;;17.01;53.33;102160.59;10450426;28;20075;-59
2024/03/06 12:11:48;;;;;;;6.32;4.32;;;;;;;17.02;53.73;102159.53;10449023;28;20052;-59
2024/03/06 12:16:56;;;;;;;6.77;3.67;;;;;;;17.04;54.35;102163.56;10449866;28;20021;-59
2024/03/06 12:21:59;;;;;;;5.93;3.42;;;;;;;17.03;54.32;102169.19;10450875;28;20032;-59
2024/03/06 12:27:01;;;;;;;6.07;2.88;;;;;;;17.02;54.10;102165.69;10448255;28;20025;-59
2024/03/06 12:32:02;;;;;;;5.75;3.00;;;;;;;17.03;54.18;102167.31;10448387;28;20021;-59
2024/03/06 12:37:12;;;;;;;4.88;3.03;;;;;;;17.02;53.79;102171.06;10448213;28;20686;-59
2024/03/06 12:42:12;;;;;;;5.97;3.17;;;;;;;17.03;54.12;102166.50;10449380;28;20059;-59
2024/03/06 12:47:13;;;;;;;4.97;3.10;;;;;;;17.01;54.60;102161.41;10448996;28;20055;-59
2024/03/06 12:52:13;;;;;;;4.57;3.25;;;;;;;16.99;55.43;102173.44;10449237;28;20290;-59
2024/03/06 12:57:13;;;;;;;8.60;3.47;;;;;;;16.98;54.60;102159.22;10447306;28;20083;-59
2024/03/06 13:02:14;;;;;;;6.32;4.22;;;;;;;16.99;54.26;102154.69;10448684;28;20275;-59
2024/03/06 13:07:14;;;;;;;7.70;3.33;;;;;;;16.97;55.68;102146.09;10448175;28;20032;-59
2024/03/06 13:12:14;;;;;;;6.47;4.15;;;;;;;16.99;55.59;102152.00;10447568;28;20051;-58
2024/03/06 13:17:15;;;;;;;10.35;4.57;;;;;;;16.97;55.33;102146.09;10447738;28;20052;-60
2024/03/06 13:22:15;;;;;;;11.97;4.83;;;;;;;17.04;55.72;102149.38;10448141;28;20032;-60
2024/03/06 13:27:15;;;;;;;13.17;6.07;;;;;;;17.09;55.65;102155.63;10447215;28;20990;-58
2024/03/06 13:32:16;;;;;;;10.73;4.30;;;;;;;17.04;55.49;102155.53;10447490;28;20278;-59
2024/03/06 13:37:16;;;;;;;15.43;5.43;;;;;;;17.10;55.95;102159.91;10447210;28;20624;-58
2024/03/06 13:42:17;;;;;;;24.27;6.80;;;;;;;17.10;56.48;102159.09;10447906;28;20491;-57
2024/03/06 13:47:17;;;;;;;15.85;6.43;;;;;;;17.13;56.91;102162.09;10446401;28;20035;-56
2024/03/06 13:52:20;;;;;;;16.63;6.72;;;;;;;17.12;55.76;102163.16;10445378;28;20025;-58
2024/03/06 13:57:20;;;;;;;16.80;6.05;;;;;;;17.13;55.38;102163.94;10446379;28;20055;-59
2024/03/06 14:02:20;;;;;;;24.35;6.63;;;;;;;17.12;55.92;102163.16;10446956;28;20028;-57
2024/03/06 14:07:21;;;;;;;29.05;6.70;;;;;;;17.13;55.51;102166.63;10446178;28;20029;-58
2024/03/06 14:12:21;;;;;;;21.88;7.30;;;;;;;17.04;56.60;102163.56;10445851;28;20037;-58
2024/03/06 14:17:22;;;;;;;21.48;6.47;;;;;;;17.03;55.90;102164.63;10446184;28;20040;-58
2024/03/06 14:22:22;;;;;;;22.17;7.05;;;;;;;17.01;55.40;102163.28;10451369;28;20384;-59
2024/03/06 14:27:22;;;;;;;18.80;5.88;;;;;;;17.02;56.65;102172.94;10454158;28;20036;-58
2024/03/06 14:32:23;;;;;;;18.70;4.57;;;;;;;16.99;56.76;102176.91;10454510;28;20048;-58
2024/03/06 14:37:23;;;;;;;11.47;4.43;;;;;;;16.99;56.08;102176.13;10454175;28;20275;-58
2024/03/06 14:42:23;;;;;;;9.68;4.75;;;;;;;16.99;55.72;102189.50;10452741;28;20329;-59
2024/03/06 14:47:24;;;;;;;11.30;4.82;;;;;;;17.01;56.45;102176.66;10453739;28;20392;-61
2024/03/06 14:52:24;;;;;;;9.93;4.15;;;;;;;16.99;55.30;102168.88;10453819;28;20040;-59
2024/03/06 14:57:24;;;;;;;8.83;4.40;;;;;;;17.00;56.81;102186.56;10451812;28;20057;-59
2024/03/06 15:02:25;;;;;;;8.88;4.13;;;;;;;17.00;55.87;102189.25;10453576;28;20343;-59
2024/03/06 15:07:25;;;;;;;12.93;5.07;;;;;;;16.99;56.82;102193.00;10451645;28;20025;-57
2024/03/06 15:12:25;;;;;;;9.27;4.33;;;;;;;16.98;56.80;102194.06;10453133;28;20648;-58
2024/03/06 15:17:26;;;;;;;9.93;3.70;;;;;;;16.95;55.87;102195.38;10451389;28;20271;-59
2024/03/06 15:22:26;;;;;;;7.50;3.30;;;;;;;16.94;56.28;102192.94;10452597;28;20298;-58
2024/03/06 15:27:26;;;;;;;7.43;3.67;;;;;;;16.95;55.72;102191.88;10444309;28;20306;-58
2024/03/06 15:32:27;;;;;;;9.90;4.13;;;;;;;17.00;56.18;102191.13;10447179;28;20306;-60
2024/03/06 15:37:27;;;;;;;13.20;4.90;;;;;;;17.04;56.83;102195.72;10449463;28;20286;-60
2024/03/06 15:42:27;;;;;;;15.73;4.82;;;;;;;17.03;57.39;102194.13;10451237;28;20298;-59
2024/03/06 15:47:28;;;;;;;10.27;4.80;;;;;;;16.99;56.67;102192.19;10450547;28;20033;-59
2024/03/06 15:52:28;;;;;;;6.00;4.03;;;;;;;16.99;55.81;102184.16;10451906;28;20297;-59
2024/03/06 15:57:28;;;;;;;7.63;3.90;;;;;;;16.89;55.51;102187.50;10450117;28;20032;-59
2024/03/06 16:02:29;;;;;;;8.38;4.85;;;;;;;16.85;55.37;102194.41;10451339;28;20306;-59
2024/03/06 16:07:31;;;;;;;9.63;5.07;;;;;;;16.95;55.93;102199.91;10457623;28;20056;-59
2024/03/06 16:12:32;;;;;;;14.70;4.30;;;;;;;16.92;55.56;102195.03;10448170;28;20500;-58
2024/03/06 16:17:34;;;;;;;15.60;5.65;;;;;;;16.93;55.33;102202.03;10434417;28;20029;-56
2024/03/06 16:22:34;;;;;;;11.00;4.35;;;;;;;16.93;54.88;102197.50;10446881;28;20040;-57
2024/03/06 16:27:35;;;;;;;12.90;6.03;;;;;;;17.20;54.93;102194.06;10447335;28;20029;-59
2024/03/06 16:32:36;;;;;;;12.52;5.55;;;;;;;17.34;55.16;102202.53;10445199;28;20291;-60
2024/03/06 16:37:36;;;;;;;13.10;5.40;;;;;;;17.41;55.17;102209.34;10446211;28;20025;-58
2024/03/06 16:42:36;;;;;;;10.60;5.07;;;;;;;17.43;54.43;102209.88;10445568;28;20361;-59
2024/03/06 16:47:37;;;;;;;9.13;5.67;;;;;;;17.54;55.48;102221.53;10447567;28;20291;-61
2024/03/06 16:52:38;;;;;;;10.77;6.82;;;;;;;17.58;56.84;102230.69;10447622;28;20284;-61
2024/03/06 16:57:38;;;;;;;12.13;6.22;;;;;;;17.68;53.76;102232.69;10448151;28;20024;-61
2024/03/06 17:02:39;;;;;;;13.00;6.22;;;;;;;17.67;57.38;102239.13;10448895;28;20583;-60
2024/03/06 17:07:41;;;;;;;11.00;6.45;;;;;;;17.61;58.88;102242.78;10448108;28;20036;-60
2024/03/06 17:12:41;;;;;;;15.40;6.65;;;;;;;17.63;57.92;102252.19;10447739;28;20136;-60
2024/03/06 17:17:42;;;;;;;21.52;8.20;;;;;;;17.62;58.03;102250.56;10448378;28;20098;-58
2024/03/06 17:22:42;;;;;;;16.23;6.20;;;;;;;17.63;56.90;102256.75;10447784;28;20035;-59
2024/03/06 17:27:42;;;;;;;13.57;6.78;;;;;;;17.57;57.45;102250.53;10447333;28;20029;-61
2024/03/06 17:32:43;;;;;;;15.63;6.33;;;;;;;17.53;57.00;102260.97;10447193;28;20024;-61
2024/03/06 17:37:43;;;;;;;17.48;7.10;;;;;;;17.42;58.45;102269.13;10446343;28;20021;-60
2024/03/06 17:42:43;;;;;;;22.40;6.30;;;;;;;17.36;57.98;102275.47;10447241;28;20029;-59
2024/03/06 17:47:44;;;;;;;11.37;5.20;;;;;;;17.23;57.52;102276.66;10446676;28;20353;-59
2024/03/06 17:52:44;;;;;;;23.30;5.57;;;;;;;17.17;58.27;102283.03;10446116;28;20286;-60
2024/03/06 17:57:48;;;;;;;15.05;5.65;;;;;;;17.15;57.72;102298.53;10446000;28;20272;-60
2024/03/06 18:02:50;;;;;;;17.92;6.82;;;;;;;17.11;58.43;102300.09;10447895;28;20021;-58
2024/03/06 18:07:50;;;;;;;19.02;6.40;;;;;;;17.09;58.83;102312.91;10443042;28;20032;-59
2024/03/06 18:12:50;;;;;;;13.57;6.32;;;;;;;17.14;57.63;102312.97;10443019;28;20557;-60
2024/03/06 18:17:52;;;;;;;13.35;6.65;;;;;;;17.23;56.76;102319.53;10443312;28;20075;-59
2024/03/06 18:22:52;;;;;;;18.17;6.72;;;;;;;17.27;56.77;102322.53;10441668;28;20244;-60
2024/03/06 18:27:52;;;;;;;13.73;6.37;;;;;;;17.32;56.77;102320.75;10441199;28;20050;-60
2024/03/06 18:32:53;;;;;;;15.73;6.20;;;;;;;17.34;58.16;102340.06;10441864;28;20655;-58
2024/03/06 18:37:53;;;;;;;19.83;6.30;;;;;;;17.35;58.16;102333.66;10441321;28;20385;-59
2024/03/06 18:42:53;;;;;;;13.98;6.53;;;;;;;17.31;57.05;102337.09;10442060;28;20025;-58
2024/03/06 18:47:54;;;;;;;16.00;6.97;;;;;;;17.21;57.11;102340.44;10440795;28;20048;-57
2024/03/06 18:52:54;;;;;;;11.70;6.13;;;;;;;17.19;57.58;102339.88;10444889;28;20280;-58
2024/03/06 18:57:55;;;;;;;14.47;6.70;;;;;;;17.19;56.61;102340.69;10445505;28;20025;-60
2024/03/06 19:02:55;;;;;;;10.33;6.00;;;;;;;17.21;57.23;102348.47;10443136;28;20666;-58
2024/03/06 19:07:56;;;;;;;9.45;6.30;;;;;;;17.21;56.36;102361.88;10444011;28;20302;-57
2024/03/06 19:12:56;;;;;;;11.00;7.05;;;;;;;17.22;55.49;102358.13;10449910;28;20048;-58
2024/03/06 19:17:57;;;;;;;13.50;6.70;;;;;;;17.24;56.56;102364.88;10449440;28;20029;-58
2024/03/06 19:22:57;;;;;;;11.20;6.67;;;;;;;17.32;55.16;102370.88;10449808;28;20765;-59
2024/03/06 19:27:57;;;;;;;10.93;6.07;;;;;;;17.52;55.24;102366.63;10442638;28;20280;-59
2024/03/06 19:32:58;;;;;;;12.53;7.60;;;;;;;17.62;57.58;102370.47;10446467;28;20333;-59
2024/03/06 19:37:58;;;;;;;11.80;7.28;;;;;;;17.65;56.13;102372.69;10449067;28;20358;-57
2024/03/06 19:42:59;;;;;;;11.77;7.47;;;;;;;17.60;56.52;102372.59;10448165;28;20043;-58
2024/03/06 19:47:59;;;;;;;10.57;7.32;;;;;;;17.49;56.01;102371.66;10450511;28;20314;-58
2024/03/06 19:52:59;;;;;;;10.80;7.37;;;;;;;17.38;56.92;102375.25;10449743;28;20032;-58
2024/03/06 19:58:00;;;;;;;13.57;7.28;;;;;;;17.30;56.32;102379.19;10449177;28;20672;-59
2024/03/06 20:03:02;;;;;;;10.27;6.70;;;;;;;17.32;55.52;102381.59;10448757;28;20499;-60
2024/03/06 20:08:04;;;;;;;11.38;7.63;;;;;;;17.35;54.76;102381.09;10446645;28;21102;-60
2024/03/06 20:13:04;;;;;;;8.05;6.35;;;;;;;17.34;55.04;102380.28;10444104;28;20455;-60
2024/03/06 20:18:07;;;;;;;9.73;6.43;;;;;;;17.34;55.58;102380.28;10440971;28;20020;-60
2024/03/06 20:23:09;;;;;;;9.93;6.03;;;;;;;17.31;54.58;102383.47;10442583;28;20028;-60
2024/03/06 20:28:10;;;;;;;10.15;8.07;;;;;;;17.30;54.91;102373.00;10448721;28;20025;-60
2024/03/06 20:33:10;;;;;;;12.77;8.55;;;;;;;17.30;54.89;102375.69;10450039;28;20174;-60
2024/03/06 20:38:12;;;;;;;10.73;7.38;;;;;;;17.31;55.10;102371.94;10449802;28;20345;-60
2024/03/06 20:43:13;;;;;;;11.43;7.70;;;;;;;17.28;55.45;102370.53;10449643;28;20056;-60
2024/03/06 20:48:13;;;;;;;9.93;6.78;;;;;;;17.32;54.02;102378.94;10449156;28;20490;-60
2024/03/06 20:53:14;;;;;;;8.82;5.88;;;;;;;17.32;54.57;102363.66;10448327;28;20101;-60
2024/03/06 20:58:14;;;;;;;9.63;7.23;;;;;;;17.33;54.34;102370.63;10448281;28;20142;-60
2024/03/06 21:03:15;;;;;;;8.52;6.22;;;;;;;17.36;54.33;102366.63;10449908;28;20880;-60
2024/03/06 21:08:16;;;;;;;10.73;6.72;;;;;;;17.35;53.48;102367.69;10449646;28;20595;-60
2024/03/06 21:13:17;;;;;;;9.07;6.78;;;;;;;17.33;54.32;102372.50;10449255;28;20125;-60
2024/03/06 21:18:17;;;;;;;7.72;6.22;;;;;;;17.34;54.15;102377.63;10449510;28;20079;-60
2024/03/06 21:23:18;;;;;;;8.48;6.47;;;;;;;17.34;54.46;102369.56;10447669;28;20025;-60
2024/03/06 21:28:18;;;;;;;7.38;6.00;;;;;;;17.36;52.77;102372.00;10448334;28;20028;-60
2024/03/06 21:33:18;;;;;;;9.03;6.43;;;;;;;17.38;53.29;102377.94;10448209;28;20029;-60
2024/03/06 21:38:19;;;;;;;9.43;7.00;;;;;;;17.35;52.97;102373.06;10448589;28;20271;-60
2024/03/06 21:43:19;;;;;;;8.27;6.73;;;;;;;17.37;52.96;102374.44;10446862;28;20287;-61
2024/03/06 21:48:19;;;;;;;7.63;6.10;;;;;;;17.36;53.52;102383.53;10448387;28;20318;-60
2024/03/06 21:53:20;;;;;;;10.27;7.87;;;;;;;17.34;52.59;102372.25;10447907;28;20279;-59
2024/03/06 21:58:20;;;;;;;10.03;7.30;;;;;;;17.37;52.51;102369.06;10447794;28;20271;-60
2024/03/06 22:03:20;;;;;;;10.23;7.03;;;;;;;17.35;52.81;102370.38;10447635;28;20289;-60
2024/03/06 22:08:21;;;;;;;10.57;7.05;;;;;;;17.40;53.16;102375.81;10447806;28;20104;-60
2024/03/06 22:13:21;;;;;;;8.80;6.53;;;;;;;17.38;52.55;102384.09;10447411;28;20045;-61
2024/03/06 22:18:21;;;;;;;7.95;7.07;;;;;;;17.37;52.85;102378.97;10447818;28;20029;-60
2024/03/06 22:23:23;;;;;;;8.47;7.10;;;;;;;17.38;52.28;102394.81;10446027;28;20032;-60
2024/03/06 22:28:23;;;;;;;7.15;6.20;;;;;;;17.39;52.91;102388.41;10445418;28;20295;-60
2024/03/06 22:33:26;;;;;;;8.73;7.40;;;;;;;17.42;51.73;102389.81;10446799;28;20021;-60
2024/03/06 22:38:28;;;;;;;8.20;6.38;;;;;;;17.41;51.80;102386.31;10447714;28;20276;-60
2024/03/06 22:43:28;;;;;;;7.57;5.93;;;;;;;17.40;51.85;102390.03;10453466;28;20528;-59
2024/03/06 22:48:28;;;;;;;9.83;7.17;;;;;;;17.37;52.64;102390.53;10455191;28;20033;-59
2024/03/06 22:53:29;;;;;;;8.27;6.43;;;;;;;17.40;52.43;102397.25;10455146;28;20279;-60
2024/03/06 22:58:29;;;;;;;7.50;6.10;;;;;;;17.37;51.54;102400.44;10447924;28;20287;-60